Ellezelles, Belgium
Current Conditions -  °F | °C
As of 1:25 AM on Sunday 23 Nov 2014 (Local Time) from EBCV Reporting Station
Broken Clouds Broken Clouds  
Wind Chill: 52°   Ceiling: 13000
Heat Index: 52°   Visibility: 6mi
Dew Point: 48°   Wind: 5mph
Humidity: 88%   Direction: 140°SE
Pressure: 30.03"   Gusts: NA
Location:  50.74°N, 3.68°E
Report Text: EBCV 230025Z AUTO 14004KT 9999 SCT110/// BKN130/// 11/09 Q1017 BLU
Loading
Personal Weather Stations






























Interactive Weather Map New forecast layout! Learn more

10-Day Weather Forecast

Advertisements
Track Severe Weather on mobile